nws-alerts: Checking more than four warning/county codes can delay the loading of your pages. You should use a cron job to get the data.

Nearby METAR Weather Reports

 

KETB - West Bend, WI
Distance from station: E 4mi, 6km
Updated: 09/20/2020 9:35pm
Clear
Clear
 Wind from calm
Wind: Calm
Temperature: 50°F , 10°C
Dew Point: 48°F , 9°C
Humidity: 94%
Barometer: 30.38 inHg , 1028.8 hPa
Clouds: Clear
Visibility: 10 miles , 16 km
2020/09/21 02:35 KETB 210235Z AUTO 00000KT 10SM CLR 10/09 A3038 RMK AO2
KFLD - Fond Du Lac, WI
Distance from station: W 34mi, 54km
Updated: 09/20/2020 9:53pm
Clear
Clear
 Wind from S
Wind: S 8 mph , 13 km/h
Temperature: 55°F , 13°C
Dew Point: 48°F , 9°C
Humidity: 77%
Barometer: 30.36 inHg , 1028.1 hPa
Clouds: Clear
Visibility: 10 miles , 16 km
2020/09/21 02:53 KFLD 210253Z AUTO 17007KT 10SM CLR 13/09 A3036 RMK AO2 SLP282 T01330089 50005
 
KSBM - Sheboygan, WI
Distance from station: NE 36mi, 57km
Updated: 09/20/2020 9:53pm
Clear
Clear
 Wind from calm
Wind: Calm
Temperature: 52°F , 11°C
Dew Point: 48°F , 9°C
Humidity: 88%
Barometer: 30.38 inHg , 1028.8 hPa
Clouds: Clear
Visibility: 10 miles , 16 km
2020/09/21 02:53 KSBM 210253Z AUTO 00000KT 10SM CLR 11/09 A3038 RMK AO2 SLP288 T01110089 53002
KMKE - Milwaukee, WI
Distance from station: S 44mi, 70km
Updated: 09/20/2020 9:52pm
Few Clouds
Few Clouds
 Wind from calm
Wind: Calm
Temperature: 61°F , 16°C
Dew Point: 52°F , 11°C
Humidity: 72%
Barometer: 30.37 inHg , 1028.4 hPa
Clouds: Few Clouds
Visibility: 10 miles , 16 km
Cloud details: Few Clouds 25000 ft
2020/09/21 02:52 KMKE 210252Z 00000KT 10SM FEW250 16/11 A3037 RMK AO2 SLP285 T01560111 51002 $
 
KOSH - Oshkosh, WI
Distance from station: WNW 52mi, 83km
Updated: 09/20/2020 9:53pm
Clear
Clear
 Wind from S
Wind: S 6 mph , 9 km/h
Temperature: 54°F , 12°C
Dew Point: 46°F , 8°C
Humidity: 77%
Barometer: 30.35 inHg , 1027.8 hPa
Clouds: Clear
Visibility: 10 miles , 16 km
2020/09/21 02:53 KOSH 210253Z 17005KT 10SM CLR 12/08 A3035 RMK AO2 SLP276 T01170078 50007
KENW - Kenosha, WI
Distance from station: SSE 69mi, 111km
Updated: 09/20/2020 9:53pm
Clear
Clear
 Wind from ESE
Wind: ESE 5 mph , 7 km/h
Temperature: 61°F , 16°C
Dew Point: 52°F , 11°C
Humidity: 72%
Barometer: 30.38 inHg , 1028.8 hPa
Clouds: Clear
Visibility: 10 miles , 16 km
2020/09/21 02:53 KENW 210253Z AUTO 12004KT 10SM CLR 16/11 A3038 RMK AO2 SLP286 T01610106 50002
 
KMSN - Madison, WI
Distance from station: SW 69mi, 111km
Updated: 09/20/2020 9:53pm
Mostly cloudy
Mostly cloudy
 Wind from SSE
Wind: SSE 8 mph , 13 km/h
Temperature: 55°F , 13°C
Dew Point: 43°F , 6°C
Humidity: 63%
Barometer: 30.34 inHg , 1027.4 hPa
Clouds: Mostly cloudy
Visibility: 10 miles , 16 km
Cloud details: Mostly cloudy 25000 ft
2020/09/21 02:53 KMSN 210253Z 15007KT 10SM BKN250 13/06 A3034 RMK AO2 SLP277 T01330061 53008 $
KSAW - Marquette, MI
Distance from station: N 262mi, 421km
Updated: 09/20/2020 9:58pm
Clear
Clear
 Wind from S
Wind: S 17 mph , 28 km/h, Gust: 24 mph , 39 km/h
Temperature: 55°F , 13°C
Dew Point: 45°F , 7°C
Humidity: 67%
Barometer: 30.30 inHg , 1026.1 hPa
Clouds: Clear
Visibility: 10 miles , 16 km
2020/09/21 02:58 KSAW 210258Z AUTO 19015G21KT 10SM CLR 13/07 A3030 RMK AO2 T01270071
 
KIMT - Iron Mountain, MI
Distance from station: NNW 201mi, 323km
Updated: 09/20/2020 9:54pm
Clear
Clear
 Wind from SSE
Wind: SSE 8 mph , 13 km/h
Temperature: 55°F , 13°C
Dew Point: 46°F , 8°C
Humidity: 72%
Barometer: 30.31 inHg , 1026.4 hPa
Clouds: Clear
Visibility: 10 miles , 16 km
2020/09/21 02:54 KIMT 210254Z AUTO 15007KT 10SM CLR 13/08 A3031 RMK AO2 SLP268 T01280078 50001
KGRB - Green Bay, WI
Distance from station: NNW 87mi, 140km
Updated: 09/20/2020 9:53pm
Clear
Clear
 Wind from S
Wind: S 7 mph , 11 km/h
Temperature: 55°F , 13°C
Dew Point: 48°F , 9°C
Humidity: 77%
Barometer: 30.35 inHg , 1027.8 hPa
Clouds: Clear
Visibility: 10 miles , 16 km
2020/09/21 02:53 KGRB 210253Z 18006KT 10SM CLR 13/09 A3035 RMK AO2 SLP281 T01330089 50005
 
KAUW - Wausau, WI
Distance from station: NW 155mi, 249km
Updated: 09/20/2020 9:54pm
Clear
Clear
 Wind from SSE
Wind: SSE 8 mph , 13 km/h
Temperature: 57°F , 14°C
Dew Point: 43°F , 6°C
Humidity: 59%
Barometer: 30.28 inHg , 1025.4 hPa
Clouds: Clear
Visibility: 10 miles , 16 km
2020/09/21 02:54 KAUW 210254Z AUTO 15007KT 10SM CLR 14/06 A3028 RMK AO2 SLP261 T01390061 55000
KORD - Chicago O'Hare, IL
Distance from station: S 113mi, 181km
Updated: 09/20/2020 9:51pm
Partly cloudy
Partly cloudy
 Wind from SE
Wind: SE 5 mph , 7 km/h
Temperature: 63°F , 17°C
Dew Point: 43°F , 6°C
Humidity: 49%
Barometer: 30.37 inHg , 1028.4 hPa
Clouds: Partly cloudy
Visibility: 10 miles , 16 km
Cloud details: Partly cloudy 25000 ft
2020/09/21 02:51 KORD 210251Z 14004KT 10SM SCT250 17/06 A3037 RMK AO2 SLP282 T01670061 50003 $
 
KVOK - WIANG Volk Field, Camp Douglas, WI
Distance from station: WNW 120mi, 193km
Updated: 09/20/2020 9:56pm
Clear
Clear
 Wind from SE
Wind: SE 7 mph , 11 km/h
Temperature: 55°F , 13°C
Dew Point: 48°F , 9°C
Humidity: 77%
Barometer: 30.28 inHg , 1025.4 hPa
Clouds: Clear
Visibility: 10 miles , 16 km
2020/09/21 02:56 KVOK 210256Z AUTO 14006KT 10SM CLR 13/09 A3028 RMK AO2 SLP258 T01280089 58002
KLNR - Lone Rock, WI
Distance from station: W 114mi, 183km
Updated: 09/20/2020 9:56pm
Clear
Clear
 Wind from ESE
Wind: ESE 7 mph , 11 km/h
Temperature: 52°F , 11°C
Dew Point: 48°F , 9°C
Humidity: 88%
Barometer: 30.32 inHg , 1026.8 hPa
Clouds: Clear
Visibility: 10 miles , 16 km
2020/09/21 02:56 KLNR 210256Z AUTO 11006KT 10SM CLR 11/09 A3032 RMK AO2 SLP265 T01110089 50007